Terminal Aerodrome Forecast
Issued by NWS

Home | Current Version | Previous Version | Text Only | Print | Product List | Glossary On
Versions: 1 2 3 4 5 6 7 8 9 10 11 12
623
FTPA31 PHFO 122344
TAFHNY
TAF
PHNY 122344Z 1300/1324 26009KT P6SM FEW025 SCT035
     FM130500 05006KT P6SM FEW020
     FM132100 26009KT P6SM FEW025 SCT035
      AMD NOT SKED=

USA.gov is the U.S. government's official web portal to all federal, state and local government web resources and services.